M I D A S
Marine Information and Data Acquisition System
Tripno 1960 of the Zeeleeuw from 2010-09-13 06:19:30 to 2010-09-13 13:52:00
Back to CruiseResearch ActivitiesStationsMapUnderway DataData graphs

EquipmentUnitsComment
TimeDGPSUTC
LatitudeDGPSDM.mWGS84
LongitudeDGPSDM.mWGS84
HeadingGyrodeg 
SOGDGPSknotsSpeed over ground
COGDGPSdegCourse over ground
DepthEcho soundermeters200 kHz
Missing or incorrect values are displayed as -999
Navigation data collected by the RV Zeeleeuw from 2010-09-13 05:56:46 to 2010-09-13 13:56:12
                                                                                    Next 1000 lines
Time Latitude Longitude Heading SOG COG Depth
2010-09-13 05:56:56 51°13.661 2°55.961 127.4 0.1 277 -999
2010-09-13 05:57:01 51°13.661 2°55.961 127.4 -999 281 -999
2010-09-13 05:57:06 51°13.661 2°55.961 127.5 -999 155 -999
2010-09-13 05:57:11 51°13.661 2°55.961 127.5 -999 232 -999
2010-09-13 05:57:16 51°13.662 2°55.962 127.6 0.1 76 -999
2010-09-13 05:57:21 51°13.662 2°55.961 127.6 -999 312 -999
2010-09-13 05:57:26 51°13.662 2°55.961 127.6 -999 262 -999
2010-09-13 05:57:31 51°13.662 2°55.961 127.6 -999 258 -999
2010-09-13 05:57:36 51°13.662 2°55.961 127.6 -999 305 -999
2010-09-13 05:57:41 51°13.662 2°55.96 127.6 0.1 252 -999
2010-09-13 05:57:46 51°13.662 2°55.96 127.6 0.1 247 -999
2010-09-13 05:57:51 51°13.662 2°55.96 127.6 -999 322 -999
2010-09-13 05:57:56 51°13.662 2°55.96 127.6 -999 26 -999
2010-09-13 05:58:01 51°13.663 2°55.96 127.6 -999 309 -999
2010-09-13 05:58:06 51°13.663 2°55.961 127.6 -999 45 -999
2010-09-13 05:58:11 51°13.663 2°55.961 127.6 0.2 81 -999
2010-09-13 05:58:16 51°13.663 2°55.961 127.6 0.1 79 -999
2010-09-13 05:58:21 51°13.663 2°55.96 127.6 -999 195 -999
2010-09-13 05:58:26 51°13.663 2°55.96 127.7 -999 104 -999
2010-09-13 05:58:31 51°13.663 2°55.96 127.7 0.1 251 -999
2010-09-13 05:58:36 51°13.663 2°55.96 127.7 0.1 286 -999
2010-09-13 05:58:41 51°13.663 2°55.96 127.7 0.1 273 -999
2010-09-13 05:58:46 51°13.663 2°55.96 127.7 -999 237 -999
2010-09-13 05:58:51 51°13.663 2°55.96 127.7 -999 87 -999
2010-09-13 05:58:56 51°13.663 2°55.96 127.8 -999 162 -999
2010-09-13 05:59:01 51°13.663 2°55.96 127.8 0.1 275 -999
2010-09-13 05:59:06 51°13.664 2°55.961 127.8 0.1 37 -999
2010-09-13 05:59:11 51°13.663 2°55.961 127.8 0.1 77 -999
2010-09-13 05:59:16 51°13.663 2°55.96 127.8 -999 197 -999
2010-09-13 05:59:21 51°13.663 2°55.96 127.9 -999 117 -999
2010-09-13 05:59:25 51°13.663 2°55.96 127.8 -999 243 -999
2010-09-13 05:59:30 51°13.663 2°55.96 127.7 -999 338 -999
2010-09-13 05:59:35 51°13.663 2°55.961 127.6 0.1 83 -999
2010-09-13 05:59:41 51°13.662 2°55.96 127.5 0.1 143 -999
2010-09-13 05:59:45 51°13.663 2°55.96 127.4 -999 258 -999
2010-09-13 05:59:51 51°13.663 2°55.961 127.4 0.1 88 -999
2010-09-13 05:59:55 51°13.663 2°55.961 127.5 -999 56 -999
2010-09-13 06:00:01 51°13.663 2°55.961 127.5 -999 349 -999
2010-09-13 06:00:05 51°13.663 2°55.961 127.5 0.1 255 -999
2010-09-13 06:00:11 51°13.663 2°55.96 127.5 -999 266 -999
2010-09-13 06:00:16 51°13.663 2°55.961 127.6 -999 32 -999
2010-09-13 06:00:21 51°13.663 2°55.961 127.6 0.1 71 -999
2010-09-13 06:00:26 51°13.663 2°55.96 127.6 0.1 254 -999
2010-09-13 06:00:31 51°13.663 2°55.96 127.6 -999 243 -999
2010-09-13 06:00:36 51°13.663 2°55.961 -999 -999 154 -999
2010-09-13 06:00:41 51°13.663 2°55.961 127.6 0.1 72 -999
2010-09-13 06:00:46 51°13.663 2°55.961 127.6 0.1 107 -999
2010-09-13 06:00:51 51°13.663 2°55.96 127.6 0.2 242 -999
2010-09-13 06:00:56 51°13.663 2°55.96 127.6 0.1 257 -999
2010-09-13 06:01:01 51°13.663 2°55.96 127.6 0.1 125 -999
2010-09-13 06:01:06 51°13.663 2°55.96 127.5 0.1 238 -999
2010-09-13 06:01:11 51°13.663 2°55.961 127.4 -999 296 -999
2010-09-13 06:01:16 51°13.663 2°55.96 127.3 0.1 316 -999
2010-09-13 06:01:21 51°13.663 2°55.961 127.2 -999 352 -999
2010-09-13 06:01:26 51°13.663 2°55.961 127.1 0.1 353 -999
2010-09-13 06:01:31 51°13.663 2°55.96 127 0.1 276 -999
2010-09-13 06:01:36 51°13.663 2°55.96 126.7 0.2 258 -999
2010-09-13 06:01:41 51°13.663 2°55.961 126.5 0.1 67 -999
2010-09-13 06:01:46 51°13.663 2°55.961 126.3 0.1 59 -999
2010-09-13 06:01:51 51°13.663 2°55.96 126 -999 226 -999
2010-09-13 06:01:56 51°13.663 2°55.96 125.7 0.1 287 -999
2010-09-13 06:02:01 51°13.663 2°55.961 125.5 -999 37 -999
2010-09-13 06:02:06 51°13.663 2°55.96 125.1 -999 30 -999
2010-09-13 06:02:11 51°13.663 2°55.96 124.9 0.1 273 -999
2010-09-13 06:02:16 51°13.663 2°55.96 124.6 0.1 269 -999
2010-09-13 06:02:21 51°13.663 2°55.961 124.5 -999 135 -999
2010-09-13 06:02:26 51°13.663 2°55.961 124.4 0.2 89 -999
2010-09-13 06:02:31 51°13.663 2°55.96 124.4 0.1 125 -999
2010-09-13 06:02:36 51°13.663 2°55.96 124.4 0.1 196 -999
2010-09-13 06:02:41 51°13.663 2°55.961 124.4 0.1 142 -999
2010-09-13 06:02:46 51°13.663 2°55.961 124.9 0.1 120 -999
2010-09-13 06:02:51 51°13.663 2°55.961 125.7 -999 205 -999
2010-09-13 06:02:56 51°13.663 2°55.961 126.3 0.1 171 -999
2010-09-13 06:03:00 51°13.662 2°55.961 126.8 0.1 177 7.2
2010-09-13 06:03:05 51°13.662 2°55.961 127.1 0.1 164 7.2
2010-09-13 06:03:10 51°13.662 2°55.961 127.3 0.1 204 7.2
2010-09-13 06:03:16 51°13.663 2°55.961 127.7 0.1 297 7.2
2010-09-13 06:03:20 51°13.662 2°55.961 127.8 -999 324 5.4
2010-09-13 06:03:25 51°13.662 2°55.961 128.1 -999 300 7.2
2010-09-13 06:03:30 51°13.662 2°55.961 128.2 -999 333 7.2
2010-09-13 06:03:35 51°13.662 2°55.961 128.2 -999 293 7.2
2010-09-13 06:03:40 51°13.662 2°55.961 128.2 -999 327 7.2
2010-09-13 06:03:44 51°13.662 2°55.961 128.2 0.1 159 5.4
2010-09-13 06:03:49 51°13.662 2°55.961 128.1 0.1 172 7.2
2010-09-13 06:03:54 51°13.663 2°55.962 128 0.1 35 7.2
2010-09-13 06:03:59 51°13.663 2°55.962 127.8 0.3 57 7.2
2010-09-13 06:04:04 51°13.662 2°55.961 127.7 0.1 42 7.2
2010-09-13 06:04:08 51°13.662 2°55.961 127.7 -999 258 7.1
2010-09-13 06:04:13 51°13.662 2°55.961 127.7 -999 43 7.1
2010-09-13 06:04:18 51°13.662 2°55.961 127.6 0.1 239 7.1
2010-09-13 06:04:23 51°13.662 2°55.961 127.6 -999 274 7.1
2010-09-13 06:04:28 51°13.662 2°55.96 127.6 0.1 262 7.1
2010-09-13 06:04:33 51°13.662 2°55.961 127.8 0.1 235 7.1
2010-09-13 06:04:37 51°13.662 2°55.961 127.8 0.1 196 7.1
2010-09-13 06:04:43 51°13.662 2°55.961 128 -999 200 5.4
2010-09-13 06:04:48 51°13.662 2°55.961 128 0.1 260 -999
2010-09-13 06:04:52 51°13.662 2°55.962 128.1 0.1 43 7.1
2010-09-13 06:04:57 51°13.662 2°55.961 128.1 0.1 53 7.1
2010-09-13 06:05:02 51°13.662 2°55.961 128.2 0.1 281 7.1
2010-09-13 06:05:07 51°13.662 2°55.961 128.2 0.2 252 7.1
2010-09-13 06:05:12 51°13.662 2°55.961 128.2 0.1 79 7.1
2010-09-13 06:05:17 51°13.662 2°55.961 128 0.1 45 5.3
2010-09-13 06:05:22 51°13.663 2°55.961 127.7 0.2 25 7.1
2010-09-13 06:05:27 51°13.662 2°55.961 127.3 -999 90 7.1
2010-09-13 06:05:32 51°13.663 2°55.961 127.1 0.1 296 7.1
2010-09-13 06:05:37 51°13.663 2°55.961 126.9 0.1 260 7.1
2010-09-13 06:05:42 51°13.663 2°55.961 126.6 -999 9 7.1
2010-09-13 06:05:47 51°13.663 2°55.961 126.5 0.1 351 7.2
2010-09-13 06:05:52 51°13.663 2°55.961 126.5 0.1 38 7.1
2010-09-13 06:05:57 51°13.663 2°55.961 126.4 -999 50 7.1
2010-09-13 06:06:02 51°13.663 2°55.961 126.4 0.1 118 7.1
2010-09-13 06:06:07 51°13.662 2°55.961 126.4 0.1 117 7.1
2010-09-13 06:06:12 51°13.662 2°55.961 126.4 0.1 97 7.1
2010-09-13 06:06:17 51°13.662 2°55.961 126.4 0.1 176 7.1
2010-09-13 06:06:22 51°13.662 2°55.961 126.4 0.1 194 7.1
2010-09-13 06:06:27 51°13.662 2°55.961 126.4 -999 230 7.1
2010-09-13 06:06:32 51°13.662 2°55.961 126.6 0.1 224 7.2
2010-09-13 06:06:37 51°13.662 2°55.961 126.9 0.1 127 7.1
2010-09-13 06:06:42 51°13.662 2°55.961 127.3 -999 205 7.1
2010-09-13 06:06:48 51°13.662 2°55.961 127.4 -999 57 7.1
2010-09-13 06:06:52 51°13.662 2°55.961 127.4 -999 316 7.1
2010-09-13 06:06:57 51°13.662 2°55.962 127.5 -999 63 7.1
2010-09-13 06:07:02 51°13.662 2°55.961 127.8 -999 183 7.2
2010-09-13 06:07:07 51°13.662 2°55.961 128.1 0.1 292 7.1
2010-09-13 06:07:12 51°13.662 2°55.961 128.5 0.1 326 7.1
2010-09-13 06:07:17 51°13.662 2°55.961 128.6 0.1 275 7.2
2010-09-13 06:07:22 51°13.662 2°55.961 128.6 0.1 259 7.1
2010-09-13 06:07:27 51°13.662 2°55.961 128.6 0.1 159 7.1
2010-09-13 06:07:32 51°13.662 2°55.962 128.6 -999 347 7.1
2010-09-13 06:07:37 51°13.662 2°55.961 128.6 0.1 238 7
2010-09-13 06:07:42 51°13.662 2°55.961 128.6 0.1 259 7
2010-09-13 06:07:47 51°13.662 2°55.962 128.6 -999 128 7.1
2010-09-13 06:07:52 51°13.662 2°55.962 128.6 -999 133 7.1
2010-09-13 06:07:57 51°13.662 2°55.962 128.6 0.1 98 7.1
2010-09-13 06:08:03 51°13.662 2°55.961 128.6 0.1 231 7.2
2010-09-13 06:08:07 51°13.662 2°55.961 128.6 0.1 232 7.1
2010-09-13 06:08:12 51°13.662 2°55.961 128.6 -999 229 7.1
2010-09-13 06:08:17 51°13.662 2°55.961 128.7 0.1 346 -999
2010-09-13 06:08:22 51°13.662 2°55.961 128.7 0.1 2 7.1
2010-09-13 06:08:27 51°13.662 2°55.961 128.6 0.1 340 7.1
2010-09-13 06:08:32 51°13.663 2°55.961 128.3 0.1 338 7.1
2010-09-13 06:08:37 51°13.663 2°55.961 127.8 0.1 340 7
2010-09-13 06:08:43 51°13.663 2°55.96 127.4 0.1 280 -999
2010-09-13 06:08:47 51°13.663 2°55.96 126.8 0.3 295 7.1
2010-09-13 06:08:52 51°13.663 2°55.961 126.3 0.1 343 7.1
2010-09-13 06:08:57 51°13.663 2°55.961 125.8 -999 129 7.1
2010-09-13 06:09:02 51°13.662 2°55.961 125.7 0.1 124 7.1
2010-09-13 06:09:07 51°13.662 2°55.961 125.8 0.1 143 7
2010-09-13 06:09:12 51°13.661 2°55.962 126.2 0.2 146 7.1
2010-09-13 06:09:17 51°13.661 2°55.962 126.6 0.1 122 7
2010-09-13 06:09:22 51°13.661 2°55.962 127.2 -999 235 7
2010-09-13 06:09:27 51°13.661 2°55.961 128.1 0.1 268 7
2010-09-13 06:09:32 51°13.661 2°55.961 128.6 0.1 335 7.1
2010-09-13 06:09:37 51°13.661 2°55.961 129 -999 244 7.1
2010-09-13 06:09:42 51°13.661 2°55.962 129.1 -999 50 7.1
2010-09-13 06:09:48 51°13.661 2°55.962 129.1 0.1 75 7.1
2010-09-13 06:09:52 51°13.661 2°55.962 129 0.1 86 7.1
2010-09-13 06:09:57 51°13.661 2°55.962 128.8 0.1 94 7.1
2010-09-13 06:10:02 51°13.662 2°55.962 128.8 -999 233 7.1
2010-09-13 06:10:07 51°13.662 2°55.961 128.7 0.1 261 7.1
2010-09-13 06:10:12 51°13.662 2°55.961 128.7 -999 242 7.1
2010-09-13 06:10:17 51°13.662 2°55.961 128.7 -999 223 7.1
2010-09-13 06:10:22 51°13.662 2°55.961 128.7 -999 355 7
2010-09-13 06:10:27 51°13.662 2°55.961 128.7 -999 226 7.1
2010-09-13 06:10:32 51°13.662 2°55.961 128.8 0.1 222 7
2010-09-13 06:10:37 51°13.662 2°55.961 128.9 0.1 197 7
2010-09-13 06:10:42 51°13.662 2°55.962 129 0.1 121 7
2010-09-13 06:10:47 51°13.661 2°55.962 129 0.1 57 7
2010-09-13 06:10:52 51°13.661 2°55.962 129 0.1 38 7.1
2010-09-13 06:10:57 51°13.661 2°55.962 128.6 0.1 33 5.4
2010-09-13 06:11:02 51°13.661 2°55.962 128.3 -999 125 7.1
2010-09-13 06:11:07 51°13.661 2°55.962 128.1 -999 52 7.1
2010-09-13 06:11:12 51°13.661 2°55.963 128 0.1 17 7
2010-09-13 06:11:17 51°13.661 2°55.963 127.9 0.1 17 7.1
2010-09-13 06:11:22 51°13.661 2°55.963 127.9 0.1 13 5.3
2010-09-13 06:11:27 51°13.661 2°55.962 127.9 -999 150 7
2010-09-13 06:11:32 51°13.661 2°55.962 128 0.1 148 7
2010-09-13 06:11:37 51°13.661 2°55.962 128.3 -999 229 5.3
2010-09-13 06:11:42 51°13.661 2°55.962 128.5 0.1 254 5.3
2010-09-13 06:11:48 51°13.661 2°55.962 128.6 0.1 327 7
2010-09-13 06:11:52 51°13.661 2°55.962 128.7 0.2 265 7
2010-09-13 06:11:57 51°13.659 2°55.962 128.7 0.2 281 7
2010-09-13 06:12:02 51°13.66 2°55.963 128.7 0.2 64 7
2010-09-13 06:12:07 51°13.66 2°55.963 128.5 0.1 79 7
2010-09-13 06:12:12 51°13.661 2°55.963 127.8 0.1 55 7
2010-09-13 06:12:17 51°13.661 2°55.963 126.7 0.1 104 7
2010-09-13 06:12:22 51°13.661 2°55.963 125.4 -999 93 7
2010-09-13 06:12:27 51°13.661 2°55.962 124.7 0.2 248 7.1
2010-09-13 06:12:32 51°13.661 2°55.962 123.9 0.2 260 -999
2010-09-13 06:12:37 51°13.661 2°55.963 122.8 0.1 73 7.1
2010-09-13 06:12:42 51°13.661 2°55.963 122.1 -999 195 7.1
2010-09-13 06:12:47 51°13.661 2°55.962 121.2 0.1 199 7.1
2010-09-13 06:12:52 51°13.661 2°55.962 120 0.1 215 7.1
2010-09-13 06:12:57 51°13.661 2°55.962 118.6 0.1 192 7.1
2010-09-13 06:13:02 51°13.661 2°55.962 117.6 0.3 237 7.1
2010-09-13 06:13:07 51°13.661 2°55.962 116.6 -999 95 7.1
2010-09-13 06:13:12 51°13.661 2°55.962 115.1 0.1 188 7.1
2010-09-13 06:13:17 51°13.661 2°55.962 114.1 0.1 224 7
2010-09-13 06:13:23 51°13.66 2°55.962 112.6 0.1 183 7.1
2010-09-13 06:13:28 51°13.66 2°55.962 111.3 0.1 204 7.2
2010-09-13 06:13:32 51°13.659 2°55.962 110.2 0.2 266 7.2
2010-09-13 06:13:37 51°13.659 2°55.961 109.5 0.3 262 7.1
2010-09-13 06:13:42 51°13.66 2°55.96 109 0.4 283 7.2
2010-09-13 06:13:47 51°13.66 2°55.958 108.5 0.9 278 7.2
2010-09-13 06:13:52 51°13.661 2°55.956 108.3 1.4 291 7.2
2010-09-13 06:13:57 51°13.662 2°55.951 108.3 1.6 286 7.2
2010-09-13 06:14:02 51°13.663 2°55.947 108.8 2.4 289 5.5
2010-09-13 06:14:08 51°13.665 2°55.94 109.2 2.8 290 -999
2010-09-13 06:14:13 51°13.666 2°55.933 109.6 3.4 292 -999
2010-09-13 06:14:19 51°13.668 2°55.924 109.6 3.6 289 -999
2010-09-13 06:14:24 51°13.671 2°55.916 109.3 4.1 290 -999
2010-09-13 06:14:30 51°13.673 2°55.905 109.3 4.4 291 -999
2010-09-13 06:14:36 51°13.676 2°55.893 109.6 4.6 290 -999
2010-09-13 06:14:41 51°13.678 2°55.884 109.7 4.6 290 -999
2010-09-13 06:14:46 51°13.681 2°55.875 109.7 4.5 292 -999
2010-09-13 06:14:51 51°13.683 2°55.865 110.3 4.7 292 -999
2010-09-13 06:14:56 51°13.686 2°55.856 110.5 4.6 293 -999
2010-09-13 06:15:01 51°13.688 2°55.847 110.8 4.4 293 -999
2010-09-13 06:15:05 51°13.69 2°55.839 110.8 4.4 293 -999
2010-09-13 06:15:10 51°13.692 2°55.831 110.4 4.3 293 4.4
2010-09-13 06:15:15 51°13.694 2°55.822 110 4.2 291 4.6
2010-09-13 06:15:20 51°13.696 2°55.814 108.7 4 290 -999
2010-09-13 06:15:25 51°13.698 2°55.806 107.3 3.9 290 -999
2010-09-13 06:15:31 51°13.699 2°55.796 105.6 3.9 288 -999
2010-09-13 06:15:36 51°13.701 2°55.788 103.2 3.7 286 -999
2010-09-13 06:15:40 51°13.702 2°55.782 101 3.6 284 13.5
2010-09-13 06:15:46 51°13.703 2°55.774 99.5 3.4 283 -999
2010-09-13 06:15:51 51°13.704 2°55.767 97.9 3.2 282 -999
2010-09-13 06:15:56 51°13.704 2°55.76 95.9 3 281 -999
2010-09-13 06:16:00 51°13.705 2°55.756 94.6 2.5 279 14.9
2010-09-13 06:16:05 51°13.705 2°55.751 92.8 2.2 276 14.8
2010-09-13 06:16:10 51°13.705 2°55.746 91 1.7 280 14.4
2010-09-13 06:16:15 51°13.706 2°55.744 89 1 277 14
2010-09-13 06:16:20 51°13.706 2°55.742 87.2 0.7 290 13.9
2010-09-13 06:16:24 51°13.706 2°55.742 83.6 0.4 309 13.9
2010-09-13 06:16:29 51°13.706 2°55.742 79.2 0.2 3 14
2010-09-13 06:16:35 51°13.707 2°55.743 75.1 0.5 42 14
2010-09-13 06:16:40 51°13.707 2°55.744 70.5 0.7 48 14.1
2010-09-13 06:16:44 51°13.708 2°55.745 65.6 0.7 52 14.2
2010-09-13 06:16:49 51°13.708 2°55.746 60.3 0.6 39 14.4
2010-09-13 06:16:54 51°13.709 2°55.747 55.8 0.2 73 14.5
2010-09-13 06:16:59 51°13.708 2°55.746 52.7 0.2 219 14.5
2010-09-13 06:17:04 51°13.707 2°55.745 50 0.8 215 14.4
2010-09-13 06:17:08 51°13.706 2°55.744 47.6 1.3 221 14.2
2010-09-13 06:17:13 51°13.705 2°55.741 45.3 1.6 222 14
2010-09-13 06:17:18 51°13.702 2°55.739 43.6 2 218 13.8
2010-09-13 06:17:23 51°13.7 2°55.735 41.9 2.2 216 -999
2010-09-13 06:17:28 51°13.698 2°55.733 40.7 2 217 -999
2010-09-13 06:17:34 51°13.695 2°55.73 39.4 1.7 216 -999
2010-09-13 06:17:40 51°13.694 2°55.728 38.9 1 219 -999
2010-09-13 06:17:46 51°13.694 2°55.728 37.7 0.1 206 -999
2010-09-13 06:17:51 51°13.694 2°55.728 32.9 0.5 38 -999
2010-09-13 06:17:56 51°13.696 2°55.73 26.3 1.1 28 4.9
2010-09-13 06:18:00 51°13.697 2°55.73 21.4 1.4 20 14.1
2010-09-13 06:18:05 51°13.7 2°55.731 16.2 1.8 9 15.1
2010-09-13 06:18:11 51°13.704 2°55.731 9.7 2.4 4 -999
2010-09-13 06:18:16 51°13.708 2°55.731 2 2.8 357 -999
2010-09-13 06:18:20 51°13.711 2°55.73 352.8 3.3 349 -999
2010-09-13 06:18:25 51°13.716 2°55.727 346.3 3.8 340 4.4
2010-09-13 06:18:30 51°13.721 2°55.724 341.9 4.3 338 13.4
2010-09-13 06:18:35 51°13.727 2°55.719 336.9 4.7 334 13.4
2010-09-13 06:18:40 51°13.733 2°55.714 334.4 5.1 332 13.2
2010-09-13 06:18:44 51°13.739 2°55.71 332.6 5.6 333 13.2
2010-09-13 06:18:49 51°13.746 2°55.704 332.2 6.1 333 13.1
2010-09-13 06:18:55 51°13.756 2°55.695 332.2 6.6 331 12.8
2010-09-13 06:18:59 51°13.763 2°55.689 332.3 7.2 331 12.7
2010-09-13 06:19:04 51°13.772 2°55.681 332 7.5 331 12.6
2010-09-13 06:19:09 51°13.782 2°55.673 331.9 8 332 12.4
2010-09-13 06:19:14 51°13.792 2°55.664 332.5 8.4 331 12.3
2010-09-13 06:19:19 51°13.802 2°55.655 332.6 8.6 332 12.3
2010-09-13 06:19:24 51°13.813 2°55.647 333.2 8.8 334 12.6
2010-09-13 06:19:28 51°13.822 2°55.639 334.1 8.9 333 12.5
2010-09-13 06:19:33 51°13.834 2°55.63 334.4 9.3 334 12.2
2010-09-13 06:19:38 51°13.845 2°55.621 335.4 9.5 334 12.1
2010-09-13 06:19:43 51°13.858 2°55.612 335.6 9.7 334 11.9
2010-09-13 06:19:48 51°13.87 2°55.603 335.6 9.8 334 11.6
2010-09-13 06:19:52 51°13.879 2°55.595 336 9.8 335 11.3
2010-09-13 06:19:57 51°13.892 2°55.586 336.5 10 335 12.1
2010-09-13 06:20:02 51°13.905 2°55.576 336.2 10.1 334 11.4
2010-09-13 06:20:07 51°13.917 2°55.566 336.1 10 334 11.7
2010-09-13 06:20:12 51°13.929 2°55.556 335.6 10 332 11.7
2010-09-13 06:20:17 51°13.942 2°55.546 334.3 10.1 332 11.8
2010-09-13 06:20:22 51°13.954 2°55.537 334.7 10.1 334 11.6
2010-09-13 06:20:27 51°13.967 2°55.527 335.4 10.2 334 11.5
2010-09-13 06:20:32 51°13.98 2°55.517 335.5 10.2 334 11.7
2010-09-13 06:20:37 51°13.992 2°55.508 335.6 10.1 336 11.4
2010-09-13 06:20:42 51°14.005 2°55.498 336.9 10.2 336 11.4
2010-09-13 06:20:47 51°14.019 2°55.49 337.9 10.2 337 11.1
2010-09-13 06:20:52 51°14.031 2°55.481 338 10.2 336 11.1
2010-09-13 06:20:57 51°14.044 2°55.472 338.2 10.2 338 11.1
2010-09-13 06:21:02 51°14.058 2°55.463 339 10.2 337 11.1
2010-09-13 06:21:07 51°14.07 2°55.454 339 10.2 337 11.2
2010-09-13 06:21:12 51°14.084 2°55.445 339 10.3 338 11.3
2010-09-13 06:21:17 51°14.097 2°55.437 339.1 10.3 337 11.3
2010-09-13 06:21:22 51°14.11 2°55.427 338.5 10.3 336 11.4
2010-09-13 06:21:27 51°14.123 2°55.418 338.2 10.3 336 11.5
2010-09-13 06:21:32 51°14.136 2°55.409 338.2 10.3 336 11.4
2010-09-13 06:21:37 51°14.149 2°55.399 337.6 10.3 335 11.4
2010-09-13 06:21:42 51°14.162 2°55.39 336.8 10.2 335 11.4
2010-09-13 06:21:47 51°14.175 2°55.38 336.5 10.3 334 11.4
2010-09-13 06:21:52 51°14.188 2°55.37 335.9 10.3 333 11.6
2010-09-13 06:21:57 51°14.2 2°55.359 334.9 10.2 333 11.4
2010-09-13 06:22:02 51°14.212 2°55.349 334.7 10.2 333 12.3
2010-09-13 06:22:07 51°14.225 2°55.338 334.3 10.3 332 11.4
2010-09-13 06:22:12 51°14.238 2°55.328 333.6 10.3 332 11.3
2010-09-13 06:22:16 51°14.248 2°55.319 333.5 10.3 331 11.3
2010-09-13 06:22:22 51°14.263 2°55.307 333.4 10.2 333 11.1
2010-09-13 06:22:27 51°14.275 2°55.296 333.2 10.2 331 11.1
2010-09-13 06:22:32 51°14.288 2°55.285 333.2 10.3 333 11.4
2010-09-13 06:22:37 51°14.3 2°55.274 333.1 10.4 331 11.4
2010-09-13 06:22:42 51°14.312 2°55.263 331.5 10.3 330 11.2
2010-09-13 06:22:47 51°14.325 2°55.251 330.7 10.4 329 11.1
2010-09-13 06:22:52 51°14.337 2°55.24 330.9 10.4 330 11.4
2010-09-13 06:22:57 51°14.349 2°55.228 330.5 10.4 329 11.3
2010-09-13 06:23:02 51°14.362 2°55.216 330 10.4 329 -999
2010-09-13 06:23:08 51°14.376 2°55.202 330 10.3 328 11.6
2010-09-13 06:23:12 51°14.386 2°55.193 329.2 10.4 328 11
2010-09-13 06:23:17 51°14.398 2°55.18 328.7 10.3 327 11.2
2010-09-13 06:23:22 51°14.41 2°55.168 328.6 10.4 328 11.3
2010-09-13 06:23:27 51°14.423 2°55.156 329.3 10.3 329 11.2
2010-09-13 06:23:32 51°14.435 2°55.145 329.9 10.3 329 11.3
2010-09-13 06:23:37 51°14.447 2°55.133 330.6 10.2 330 11.4
2010-09-13 06:23:42 51°14.459 2°55.121 330.9 10.1 328 11.1
2010-09-13 06:23:47 51°14.471 2°55.11 330.8 10.1 329 11.2
2010-09-13 06:23:52 51°14.483 2°55.099 331.1 10.2 330 11.5
2010-09-13 06:23:57 51°14.495 2°55.088 331.9 10.3 331 11.3
2010-09-13 06:24:02 51°14.508 2°55.076 332.2 10.3 329 11.4
2010-09-13 06:24:07 51°14.52 2°55.065 332.2 10.3 330 11.8
2010-09-13 06:24:12 51°14.532 2°55.053 331.8 10.2 328 11.9
2010-09-13 06:24:16 51°14.542 2°55.043 330.5 10.4 326 12
2010-09-13 06:24:22 51°14.556 2°55.026 327.5 10.4 322 12.1
2010-09-13 06:24:27 51°14.566 2°55.011 323.6 10.3 318 12.2
2010-09-13 06:24:32 51°14.576 2°54.995 320.3 10.4 315 12
2010-09-13 06:24:37 51°14.586 2°54.978 316.7 10.5 312 12.2
2010-09-13 06:24:42 51°14.595 2°54.959 313.8 10.7 308 12.1
2010-09-13 06:24:47 51°14.604 2°54.94 310.1 10.8 305 12.1
2010-09-13 06:24:52 51°14.612 2°54.919 306.7 11 301 11.9
2010-09-13 06:24:57 51°14.619 2°54.897 303.2 11.2 298 12.1
2010-09-13 06:25:02 51°14.626 2°54.874 299.9 11.5 295 12
2010-09-13 06:25:07 51°14.632 2°54.85 296.4 11.8 291 12
2010-09-13 06:25:12 51°14.637 2°54.826 292.7 11.7 289 12.1
2010-09-13 06:25:17 51°14.641 2°54.801 289.2 11.8 285 12
2010-09-13 06:25:22 51°14.645 2°54.776 285.4 11.9 283 11.9
2010-09-13 06:25:27 51°14.647 2°54.749 281.8 12 278 12
2010-09-13 06:25:32 51°14.648 2°54.722 278.1 12 274 12
2010-09-13 06:25:37 51°14.648 2°54.696 273.8 12 270 11.9
2010-09-13 06:25:42 51°14.647 2°54.669 269.4 12.1 266 12
2010-09-13 06:25:47 51°14.644 2°54.642 264.9 12.3 261 11.9
2010-09-13 06:25:52 51°14.641 2°54.615 260.7 12.3 258 10.8
2010-09-13 06:25:57 51°14.636 2°54.589 256.4 12.4 254 10.8
2010-09-13 06:26:02 51°14.63 2°54.563 252.1 12.6 251 10.7
2010-09-13 06:26:07 51°14.624 2°54.537 249.3 12.6 248 10.7
2010-09-13 06:26:12 51°14.617 2°54.51 248 12.9 248 10.6
2010-09-13 06:26:17 51°14.61 2°54.484 245.8 13 246 10.6
2010-09-13 06:26:22 51°14.602 2°54.458 244.1 13 244 10.6
2010-09-13 06:26:27 51°14.594 2°54.432 243.2 13.1 244 10.5
2010-09-13 06:26:32 51°14.584 2°54.408 240.4 13.1 239 10.5
2010-09-13 06:26:36 51°14.577 2°54.388 237.7 13.2 237 10.6
2010-09-13 06:26:42 51°14.564 2°54.36 235.6 13.1 235 10.4
2010-09-13 06:26:47 51°14.553 2°54.336 233.3 13.2 233 10.5
2010-09-13 06:26:52 51°14.542 2°54.313 232.2 13.1 233 10.4
2010-09-13 06:26:57 51°14.53 2°54.291 230.7 13.1 230 10.4
2010-09-13 06:27:02 51°14.518 2°54.268 229.8 13.3 231 10.5
2010-09-13 06:27:07 51°14.506 2°54.246 229.2 13.3 228 10.4
2010-09-13 06:27:12 51°14.494 2°54.223 228.2 13.4 231 10.5
2010-09-13 06:27:16 51°14.485 2°54.205 228.9 13.2 229 10.3
2010-09-13 06:27:22 51°14.47 2°54.179 228.3 13.3 229 10.2
2010-09-13 06:27:27 51°14.458 2°54.157 228.2 13.2 229 10.2
2010-09-13 06:27:32 51°14.447 2°54.135 228.7 13.2 229 10.1
2010-09-13 06:27:37 51°14.435 2°54.112 228.1 13.1 230 10.1
2010-09-13 06:27:42 51°14.423 2°54.09 228.2 13.2 229 10.2
2010-09-13 06:27:47 51°14.411 2°54.068 227.9 13.3 230 10.2
2010-09-13 06:27:52 51°14.399 2°54.045 228.2 13.3 230 10.2
2010-09-13 06:27:57 51°14.387 2°54.023 228.6 13.3 230 10
2010-09-13 06:28:02 51°14.376 2°54.001 228.5 13.2 231 10
2010-09-13 06:28:07 51°14.364 2°53.978 230.2 13.2 231 10
2010-09-13 06:28:12 51°14.353 2°53.955 231.2 13.2 234 10.1
2010-09-13 06:28:17 51°14.342 2°53.932 232.7 13.1 232 10.1
2010-09-13 06:28:22 51°14.331 2°53.908 232.2 13.2 234 10.2
2010-09-13 06:28:27 51°14.321 2°53.885 233.1 13.2 233 10.1
2010-09-13 06:28:32 51°14.31 2°53.861 233.2 13.1 235 10.2
2010-09-13 06:28:37 51°14.299 2°53.838 233.7 13.1 233 10.2
2010-09-13 06:28:42 51°14.289 2°53.814 234.4 13.1 236 10.1
2010-09-13 06:28:47 51°14.278 2°53.79 234.8 13.1 234 10.2
2010-09-13 06:28:52 51°14.269 2°53.766 235.5 13.1 236 10.1
2010-09-13 06:28:56 51°14.26 2°53.747 235.2 13.1 235 10
2010-09-13 06:29:02 51°14.248 2°53.718 235 13.1 236 10.1
2010-09-13 06:29:07 51°14.238 2°53.695 235.1 13.1 234 10.1
2010-09-13 06:29:12 51°14.228 2°53.671 234.9 13.1 236 10.1
2010-09-13 06:29:17 51°14.217 2°53.648 234.8 13.1 235 10.2
2010-09-13 06:29:22 51°14.207 2°53.624 234.9 13.1 235 10.1
2010-09-13 06:29:27 51°14.196 2°53.601 234.6 13.1 234 10.2
2010-09-13 06:29:32 51°14.186 2°53.577 234.3 13 234 10.2
2010-09-13 06:29:37 51°14.175 2°53.554 234.5 13 234 10.3
2010-09-13 06:29:42 51°14.165 2°53.53 234.8 13.1 235 10.2
2010-09-13 06:29:47 51°14.155 2°53.506 235.3 13 236 10.2
2010-09-13 06:29:52 51°14.144 2°53.484 235.2 13 234 10.2
2010-09-13 06:29:57 51°14.134 2°53.459 235.5 13.1 236 10.2
2010-09-13 06:30:02 51°14.124 2°53.436 235.6 13.1 235 10.4
2010-09-13 06:30:07 51°14.113 2°53.412 235.6 13 235 10.4
2010-09-13 06:30:12 51°14.103 2°53.389 235.6 13 235 10.2
2010-09-13 06:30:17 51°14.092 2°53.365 235.2 13.1 233 10.5
2010-09-13 06:30:22 51°14.082 2°53.342 235.1 13 236 10.3
2010-09-13 06:30:27 51°14.072 2°53.318 235 13 234 10.2
2010-09-13 06:30:32 51°14.061 2°53.295 235.2 12.9 235 10.1
2010-09-13 06:30:37 51°14.05 2°53.272 235.3 12.9 234 10.4
2010-09-13 06:30:42 51°14.04 2°53.249 235.2 12.9 234 10.2
2010-09-13 06:30:47 51°14.029 2°53.224 235.2 13.1 234 10.2
2010-09-13 06:30:52 51°14.019 2°53.201 235.2 13.1 236 10.4
2010-09-13 06:30:57 51°14.008 2°53.177 235.6 13.1 234 10.4
2010-09-13 06:31:02 51°13.998 2°53.153 235.2 13.1 236 10.3
2010-09-13 06:31:07 51°13.988 2°53.129 235.5 13.1 234 10.4
2010-09-13 06:31:12 51°13.978 2°53.105 235.9 13.1 236 10.3
2010-09-13 06:31:16 51°13.969 2°53.087 235.8 13.1 235 10.5
2010-09-13 06:31:22 51°13.957 2°53.058 235.9 13.1 235 10.4
2010-09-13 06:31:27 51°13.946 2°53.035 235.1 13.1 235 10.5
2010-09-13 06:31:32 51°13.936 2°53.011 235.3 13 236 10.5
2010-09-13 06:31:37 51°13.925 2°52.988 235.7 13 233 10.4
2010-09-13 06:31:42 51°13.914 2°52.964 234.5 13.2 235 10.5
2010-09-13 06:31:47 51°13.904 2°52.94 235.2 13.1 235 10.6
2010-09-13 06:31:52 51°13.893 2°52.917 235.3 13.1 234 10.5
2010-09-13 06:31:57 51°13.883 2°52.894 235 13 235 10.6
2010-09-13 06:32:02 51°13.872 2°52.871 235.2 13 233 10.5
2010-09-13 06:32:07 51°13.862 2°52.848 235 13 234 10.7
2010-09-13 06:32:12 51°13.851 2°52.824 235.2 13 233 10.4
2010-09-13 06:32:17 51°13.84 2°52.8 234.7 13.1 234 10.4
2010-09-13 06:32:22 51°13.83 2°52.776 235 13.2 235 10.5
2010-09-13 06:32:27 51°13.82 2°52.752 235.2 13.2 234 10.6
2010-09-13 06:32:32 51°13.809 2°52.728 235.3 13.1 236 10.6
2010-09-13 06:32:37 51°13.799 2°52.705 235.5 13.1 234 10.5
2010-09-13 06:32:42 51°13.788 2°52.68 235.1 13.2 237 10.5
2010-09-13 06:32:47 51°13.777 2°52.657 235.9 13.1 234 10.6
2010-09-13 06:32:52 51°13.767 2°52.633 235.4 13.3 235 10.6
2010-09-13 06:32:57 51°13.757 2°52.609 235.3 13.2 235 10.6
2010-09-13 06:33:02 51°13.746 2°52.585 235.5 13.1 235 10.5
2010-09-13 06:33:07 51°13.736 2°52.562 235.7 13.2 234 10.6
2010-09-13 06:33:12 51°13.725 2°52.537 235.2 13.3 235 10.6
2010-09-13 06:33:17 51°13.715 2°52.513 235.6 13.2 235 10.6
2010-09-13 06:33:22 51°13.704 2°52.49 235.3 13.3 235 10.7
2010-09-13 06:33:27 51°13.694 2°52.465 235 13.3 235 10.7
2010-09-13 06:33:32 51°13.683 2°52.442 234.9 13.2 236 10.7
2010-09-13 06:33:37 51°13.672 2°52.418 235.6 13.2 235 10.6
2010-09-13 06:33:42 51°13.661 2°52.394 234.8 13.3 236 10.7
2010-09-13 06:33:47 51°13.651 2°52.37 235.2 13.2 233 10.6
2010-09-13 06:33:52 51°13.64 2°52.347 234.8 13.2 234 10.7
2010-09-13 06:33:57 51°13.63 2°52.322 235.6 13.3 235 10.5
2010-09-13 06:34:02 51°13.619 2°52.298 235.2 13.3 235 10.7
2010-09-13 06:34:07 51°13.608 2°52.274 235.3 13.4 234 10.6
2010-09-13 06:34:12 51°13.598 2°52.251 235.4 13.3 235 10.7
2010-09-13 06:34:17 51°13.587 2°52.226 235.6 13.4 235 10.6
2010-09-13 06:34:22 51°13.577 2°52.203 235.7 13.3 235 10.5
2010-09-13 06:34:27 51°13.566 2°52.179 235.3 13.3 235 10.6
2010-09-13 06:34:32 51°13.555 2°52.155 235.2 13.3 234 10.7
2010-09-13 06:34:37 51°13.545 2°52.131 235.4 13.2 235 10.6
2010-09-13 06:34:42 51°13.534 2°52.108 235.2 13.2 235 10.7
2010-09-13 06:34:47 51°13.523 2°52.084 235.2 13.2 234 10.7
2010-09-13 06:34:52 51°13.512 2°52.059 235.1 13.3 235 10.8
2010-09-13 06:34:57 51°13.502 2°52.036 235.6 13.2 235 10.6
2010-09-13 06:35:02 51°13.491 2°52.011 235.2 13.3 234 10.8
2010-09-13 06:35:07 51°13.481 2°51.987 235.3 13.2 235 10.7
2010-09-13 06:35:12 51°13.47 2°51.964 235.3 13.2 234 10.7
2010-09-13 06:35:17 51°13.459 2°51.94 234.8 13.3 235 10.6
2010-09-13 06:35:22 51°13.448 2°51.916 234.9 13.4 234 10.6
2010-09-13 06:35:27 51°13.438 2°51.891 235.2 13.3 236 10.6
2010-09-13 06:35:32 51°13.427 2°51.868 235.5 13.3 234 10.6
2010-09-13 06:35:37 51°13.417 2°51.844 235.5 13.2 235 10.7
2010-09-13 06:35:42 51°13.406 2°51.82 235.2 13.3 235 10.7
2010-09-13 06:35:47 51°13.395 2°51.796 235.1 13.3 234 10.7
2010-09-13 06:35:52 51°13.385 2°51.773 235 13.2 235 10.7
2010-09-13 06:35:56 51°13.376 2°51.753 235.5 13.2 234 10.5
2010-09-13 06:36:02 51°13.363 2°51.725 235 13.3 235 10.6
2010-09-13 06:36:07 51°13.352 2°51.701 234.9 13.3 234 10.7
2010-09-13 06:36:12 51°13.341 2°51.677 235.2 13.2 235 10.5
2010-09-13 06:36:17 51°13.331 2°51.654 234.8 13.2 233 10.7
2010-09-13 06:36:22 51°13.32 2°51.63 234.5 13.2 235 10.6
2010-09-13 06:36:27 51°13.309 2°51.607 234.9 13.2 233 10.5
2010-09-13 06:36:32 51°13.298 2°51.583 234.7 13.2 235 10.5
2010-09-13 06:36:37 51°13.288 2°51.559 235.4 13.3 235 10.6
2010-09-13 06:36:42 51°13.277 2°51.535 235.8 13.3 234 10.7
2010-09-13 06:36:47 51°13.266 2°51.512 235.2 13.2 234 10.5
2010-09-13 06:36:52 51°13.256 2°51.488 235.2 13.3 234 10.6
2010-09-13 06:36:57 51°13.245 2°51.464 235.1 13.3 235 10.5
2010-09-13 06:37:02 51°13.234 2°51.44 235.4 13.2 235 10.6
2010-09-13 06:37:07 51°13.224 2°51.416 235.9 13.2 235 10.5
2010-09-13 06:37:12 51°13.213 2°51.392 235.4 13.3 234 10.5
2010-09-13 06:37:17 51°13.203 2°51.368 236 13.2 236 10.6
2010-09-13 06:37:22 51°13.192 2°51.344 236 13.3 234 10.5
2010-09-13 06:37:27 51°13.181 2°51.32 235.2 13.2 234 10.5
2010-09-13 06:37:32 51°13.171 2°51.296 235.6 13.3 235 10.6
2010-09-13 06:37:37 51°13.16 2°51.272 235.6 13.2 235 10.5
2010-09-13 06:37:42 51°13.149 2°51.249 235.9 13.1 233 10.6
2010-09-13 06:37:47 51°13.139 2°51.224 235.1 13.3 235 10.6
2010-09-13 06:37:52 51°13.128 2°51.2 235.2 13.3 235 10.5
2010-09-13 06:37:57 51°13.118 2°51.176 235.5 13.3 235 10.6
2010-09-13 06:38:02 51°13.107 2°51.152 235.8 13.3 234 10.5
2010-09-13 06:38:07 51°13.096 2°51.129 235.6 13.1 235 10.6
2010-09-13 06:38:12 51°13.086 2°51.106 235.2 13.1 234 10.4
2010-09-13 06:38:16 51°13.077 2°51.086 234.6 13.3 235 10.5
2010-09-13 06:38:22 51°13.064 2°51.057 235.3 13.2 236 10.5
2010-09-13 06:38:27 51°13.053 2°51.034 235.3 13.2 233 10.4
2010-09-13 06:38:32 51°13.043 2°51.009 234.9 13.4 235 10.4
2010-09-13 06:38:37 51°13.032 2°50.986 235.4 13.4 235 10.6
2010-09-13 06:38:42 51°13.021 2°50.962 235.4 13.3 234 10.4
2010-09-13 06:38:47 51°13.011 2°50.938 235.2 13.4 235 10.4
2010-09-13 06:38:52 51°13 2°50.914 235.6 13.3 235 10.5
2010-09-13 06:38:57 51°12.99 2°50.89 235.7 13.3 234 10.4
2010-09-13 06:39:02 51°12.979 2°50.866 235.2 13.3 236 10.4
2010-09-13 06:39:07 51°12.968 2°50.843 235.7 13.2 234 10.3
2010-09-13 06:39:12 51°12.957 2°50.819 235 13.3 234 10.5
2010-09-13 06:39:17 51°12.947 2°50.795 235.5 13.3 235 10.4
2010-09-13 06:39:22 51°12.936 2°50.771 235.3 13.3 235 10.4
2010-09-13 06:39:27 51°12.926 2°50.747 235.3 13.3 235 10.4
2010-09-13 06:39:32 51°12.915 2°50.723 235.3 13.3 234 10.4
2010-09-13 06:39:37 51°12.904 2°50.699 235.3 13.3 235 10.4
2010-09-13 06:39:42 51°12.894 2°50.675 235.5 13.3 234 10.4
2010-09-13 06:39:47 51°12.883 2°50.651 235.1 13.2 236 10.4
2010-09-13 06:39:52 51°12.872 2°50.627 235.4 13.3 234 10.2
2010-09-13 06:39:57 51°12.862 2°50.603 235.3 13.3 235 10.3
2010-09-13 06:40:02 51°12.851 2°50.58 235.4 13.3 235 10.4
2010-09-13 06:40:07 51°12.84 2°50.556 235.5 13.3 234 10.1
2010-09-13 06:40:12 51°12.83 2°50.532 235.4 13.2 235 10.2
2010-09-13 06:40:16 51°12.821 2°50.513 235.2 13.2 234 10.2
2010-09-13 06:40:22 51°12.809 2°50.484 234.8 13.3 236 10.2
2010-09-13 06:40:27 51°12.798 2°50.461 234.8 13.2 233 10.3
2010-09-13 06:40:32 51°12.787 2°50.437 234.8 13.2 235 10.4
2010-09-13 06:40:37 51°12.776 2°50.414 235 13.2 234 10.2
2010-09-13 06:40:42 51°12.765 2°50.39 234.5 13.4 234 10.3
2010-09-13 06:40:47 51°12.755 2°50.366 235.2 13.2 234 10.2
2010-09-13 06:40:52 51°12.744 2°50.343 235 13.2 234 10.1
2010-09-13 06:40:57 51°12.733 2°50.319 234.8 13.3 235 10.2
2010-09-13 06:41:02 51°12.723 2°50.295 235.2 13.2 234 9.8
2010-09-13 06:41:07 51°12.712 2°50.271 234.8 13.3 235 10.2
2010-09-13 06:41:12 51°12.702 2°50.247 235.6 13.3 236 10.1
2010-09-13 06:41:17 51°12.691 2°50.223 235.6 13.2 234 10.2
2010-09-13 06:41:22 51°12.68 2°50.199 235.3 13.1 236 10
2010-09-13 06:41:27 51°12.669 2°50.175 235.6 13.3 234 10.1
2010-09-13 06:41:32 51°12.659 2°50.151 235.2 13.3 236 9.9
2010-09-13 06:41:37 51°12.648 2°50.127 235.4 13.3 234 10
2010-09-13 06:41:42 51°12.638 2°50.103 235.5 13.4 234 9.9
2010-09-13 06:41:47 51°12.627 2°50.08 235.2 13.2 235 9.9
2010-09-13 06:41:52 51°12.617 2°50.055 235.9 13.2 235 9.8
2010-09-13 06:41:57 51°12.606 2°50.032 235 13.2 235 9.8
2010-09-13 06:42:02 51°12.595 2°50.008 235 13.3 234 9.9
2010-09-13 06:42:07 51°12.585 2°49.983 235.2 13.3 236 9.8
2010-09-13 06:42:12 51°12.574 2°49.959 235.6 13.3 234 9.8
2010-09-13 06:42:17 51°12.564 2°49.935 235.3 13.2 236 9.7
2010-09-13 06:42:22 51°12.553 2°49.911 235.3 13.2 234 9.9
2010-09-13 06:42:27 51°12.543 2°49.887 235.2 13.3 236 9.7
2010-09-13 06:42:32 51°12.531 2°49.864 235.5 13.2 234 9.8
2010-09-13 06:42:36 51°12.523 2°49.844 235.6 13.2 235 9.6
2010-09-13 06:42:42 51°12.51 2°49.816 235.1 13.3 234 9.8
2010-09-13 06:42:47 51°12.5 2°49.791 235.2 13.3 236 9.8
2010-09-13 06:42:52 51°12.49 2°49.767 236.5 13.2 238 9.7
2010-09-13 06:42:56 51°12.483 2°49.747 238.5 13.2 239 9.8
2010-09-13 06:43:02 51°12.471 2°49.717 239.5 13.4 239 9.8
2010-09-13 06:43:07 51°12.463 2°49.691 241.1 13.2 239 9.7
2010-09-13 06:43:12 51°12.454 2°49.665 241.1 13.3 241 9.7
2010-09-13 06:43:17 51°12.445 2°49.64 242.4 13.1 243 9.6
2010-09-13 06:43:22 51°12.437 2°49.614 242.9 13.2 241 9.7
2010-09-13 06:43:27 51°12.429 2°49.588 243.2 13.1 243 9.7
2010-09-13 06:43:32 51°12.42 2°49.562 243.8 13.2 243 9.6
2010-09-13 06:43:37 51°12.412 2°49.536 244 13.2 244 9.6
2010-09-13 06:43:42 51°12.403 2°49.51 244.2 13.2 243 9.7
2010-09-13 06:43:47 51°12.396 2°49.484 244 13.2 244 9.6
2010-09-13 06:43:52 51°12.387 2°49.458 244.1 13.3 243 9.7
2010-09-13 06:43:57 51°12.379 2°49.431 244 13.3 243 9.7
2010-09-13 06:44:02 51°12.371 2°49.405 243.8 13.3 244 9.8
2010-09-13 06:44:07 51°12.362 2°49.379 244 13.3 243 9.7
2010-09-13 06:44:12 51°12.354 2°49.353 244 13.3 244 9.8
2010-09-13 06:44:16 51°12.347 2°49.332 244.1 13.3 243 9.7
2010-09-13 06:44:22 51°12.337 2°49.3 244 13.4 244 9.8
2010-09-13 06:44:27 51°12.329 2°49.274 244.1 13.2 244 9.7
2010-09-13 06:44:32 51°12.32 2°49.248 244 13.2 243 9.7
2010-09-13 06:44:37 51°12.312 2°49.221 244.1 13.3 243 9.7
2010-09-13 06:44:42 51°12.303 2°49.195 243.9 13.3 242 9.9
2010-09-13 06:44:47 51°12.295 2°49.169 243.7 13.3 243 9.7
2010-09-13 06:44:52 51°12.287 2°49.143 243.6 13.3 242 9.7
2010-09-13 06:44:56 51°12.28 2°49.122 243.5 13.4 243 9.8
2010-09-13 06:45:02 51°12.27 2°49.09 243.5 13.5 243 9.9
2010-09-13 06:45:07 51°12.261 2°49.063 243.5 13.5 244 9.8
2010-09-13 06:45:12 51°12.253 2°49.037 244 13.5 244 9.8
2010-09-13 06:45:17 51°12.245 2°49.011 244.1 13.4 244 9.8
2010-09-13 06:45:22 51°12.237 2°48.984 244 13.4 244 9.8
2010-09-13 06:45:27 51°12.229 2°48.957 244.2 13.4 244 9.8
2010-09-13 06:45:32 51°12.22 2°48.932 244 13.3 243 9.8
2010-09-13 06:45:37 51°12.212 2°48.906 243.7 13.3 244 9.7
2010-09-13 06:45:42 51°12.203 2°48.879 243.7 13.4 242 9.8
2010-09-13 06:45:47 51°12.195 2°48.852 243.5 13.5 244 9.8
2010-09-13 06:45:52 51°12.186 2°48.826 243.4 13.4 243 9.7
2010-09-13 06:45:57 51°12.178 2°48.8 243.7 13.3 243 9.9
2010-09-13 06:46:02 51°12.17 2°48.773 244.1 13.5 243 9.8
2010-09-13 06:46:07 51°12.161 2°48.747 243.1 13.5 243 9.9
2010-09-13 06:46:12 51°12.153 2°48.721 244 13.3 245 9.7
2010-09-13 06:46:17 51°12.144 2°48.695 243.3 13.4 241 9.9
2010-09-13 06:46:22 51°12.137 2°48.668 243.5 13.4 245 9.8
2010-09-13 06:46:27 51°12.128 2°48.641 243.7 13.4 244 9.8
2010-09-13 06:46:32 51°12.12 2°48.615 243.9 13.4 244 9.9
2010-09-13 06:46:37 51°12.112 2°48.588 244.1 13.3 244 9.9
2010-09-13 06:46:42 51°12.104 2°48.562 244.3 13.4 243 9.9
2010-09-13 06:46:47 51°12.095 2°48.535 243.2 13.5 245 9.9
2010-09-13 06:46:52 51°12.087 2°48.509 244 13.4 244 9.9
2010-09-13 06:46:56 51°12.08 2°48.488 243.5 13.4 243 9.8
2010-09-13 06:47:02 51°12.07 2°48.456 243.2 13.5 243 9.8
2010-09-13 06:47:07 51°12.062 2°48.429 243.7 13.5 243 9.9
2010-09-13 06:47:12 51°12.053 2°48.403 243.2 13.4 244 9.9
2010-09-13 06:47:17 51°12.045 2°48.376 243.9 13.4 243 9.8
2010-09-13 06:47:22 51°12.037 2°48.35 243.9 13.5 244 9.8
2010-09-13 06:47:27 51°12.028 2°48.323 243.4 13.5 244 9.9
2010-09-13 06:47:32 51°12.02 2°48.297 243.6 13.5 243 10
2010-09-13 06:47:37 51°12.011 2°48.27 242.9 13.6 243 9.9
2010-09-13 06:47:42 51°12.003 2°48.244 243.6 13.3 243 9.8
2010-09-13 06:47:47 51°11.994 2°48.218 243.2 13.4 243 9.8
2010-09-13 06:47:52 51°11.986 2°48.192 243.5 13.4 243 9.9
2010-09-13 06:47:57 51°11.977 2°48.165 243.2 13.4 243 9.9
2010-09-13 06:48:02 51°11.97 2°48.139 243.6 13.3 244 9.8
2010-09-13 06:48:07 51°11.961 2°48.112 243.2 13.4 244 9.9
2010-09-13 06:48:12 51°11.953 2°48.085 243.5 13.4 243 9.9
2010-09-13 06:48:17 51°11.945 2°48.059 243.7 13.4 244 9.8
2010-09-13 06:48:22 51°11.936 2°48.033 243 13.4 243 10
2010-09-13 06:48:27 51°11.928 2°48.006 243.3 13.4 244 9.9
2010-09-13 06:48:32 51°11.92 2°47.98 243.4 13.3 244 9.9
2010-09-13 06:48:37 51°11.912 2°47.953 243.7 13.3 244 9.9
2010-09-13 06:48:42 51°11.904 2°47.927 243.5 13.4 244 9.8
2010-09-13 06:48:47 51°11.895 2°47.9 243.7 13.5 243 9.8
2010-09-13 06:48:52 51°11.887 2°47.873 243.6 13.5 244 9.8
2010-09-13 06:48:57 51°11.878 2°47.847 243.6 13.4 243 9.8
2010-09-13 06:49:02 51°11.87 2°47.82 244 13.5 244 9.7
2010-09-13 06:49:07 51°11.862 2°47.794 243.8 13.4 243 9.7
2010-09-13 06:49:12 51°11.853 2°47.768 243.2 13.4 242 9.9
2010-09-13 06:49:16 51°11.847 2°47.747 242.9 13.4 244 9.9
2010-09-13 06:49:22 51°11.837 2°47.715 243.2 13.5 242 9.6
2010-09-13 06:49:27 51°11.829 2°47.688 243.2 13.4 245 9.7
2010-09-13 06:49:32 51°11.82 2°47.662 243.7 13.4 242 9.6
2010-09-13 06:49:36 51°11.813 2°47.64 243.5 13.5 244 9.6
2010-09-13 06:49:42 51°11.803 2°47.609 243.2 13.4 244 9.7
2010-09-13 06:49:47 51°11.795 2°47.582 243.6 13.4 244 9.7
2010-09-13 06:49:52 51°11.787 2°47.556 243.4 13.4 243 9.6
2010-09-13 06:49:57 51°11.778 2°47.529 243.3 13.5 244 9.6
2010-09-13 06:50:02 51°11.77 2°47.503 243.8 13.5 243 9.6
2010-09-13 06:50:07 51°11.761 2°47.476 243.2 13.5 243 9.5
2010-09-13 06:50:12 51°11.753 2°47.45 243 13.5 243 9.6
2010-09-13 06:50:17 51°11.745 2°47.423 242.9 13.6 244 9.5
2010-09-13 06:50:22 51°11.736 2°47.397 243.2 13.4 244 9.6
2010-09-13 06:50:27 51°11.728 2°47.37 243.2 13.4 243 9.6
2010-09-13 06:50:32 51°11.719 2°47.344 243.4 13.4 244 9.5
2010-09-13 06:50:37 51°11.71 2°47.317 243.3 13.5 242 9.6
2010-09-13 06:50:42 51°11.702 2°47.291 242.7 13.6 243 9.6
2010-09-13 06:50:47 51°11.694 2°47.264 243.2 13.5 243 9.6
2010-09-13 06:50:52 51°11.685 2°47.238 243.1 13.3 243 9.6
2010-09-13 06:50:56 51°11.679 2°47.217 243 13.4 243 9.5
2010-09-13 06:51:02 51°11.669 2°47.185 243.2 13.4 244 9.4
2010-09-13 06:51:07 51°11.66 2°47.158 243.5 13.4 243 9.5
2010-09-13 06:51:12 51°11.652 2°47.132 243.2 13.4 243 9.5
2010-09-13 06:51:16 51°11.645 2°47.111 243.6 13.4 243 9.4
2010-09-13 06:51:22 51°11.635 2°47.079 242.9 13.5 243 9.5
2010-09-13 06:51:27 51°11.627 2°47.052 242.9 13.5 244 9.4
2010-09-13 06:51:32 51°11.618 2°47.026 243.2 13.4 243 9.2
2010-09-13 06:51:37 51°11.61 2°46.999 242.9 13.5 243 9.5
2010-09-13 06:51:42 51°11.602 2°46.973 243.3 13.3 244 9.3
2010-09-13 06:51:47 51°11.593 2°46.946 243.4 13.5 242 9.4
2010-09-13 06:51:52 51°11.585 2°46.92 242.5 13.5 244 9.3
2010-09-13 06:51:56 51°11.578 2°46.899 243.2 13.3 243 9.5
2010-09-13 06:52:02 51°11.568 2°46.866 243 13.5 244 9.2
2010-09-13 06:52:07 51°11.559 2°46.84 242.9 13.5 243 9.3
2010-09-13 06:52:12 51°11.551 2°46.813 243.3 13.5 243 9.4
2010-09-13 06:52:16 51°11.544 2°46.792 243.3 13.5 243 9.3
2010-09-13 06:52:22 51°11.534 2°46.76 243.1 13.5 244 9.3
2010-09-13 06:52:27 51°11.526 2°46.733 243.3 13.6 243 9.2
2010-09-13 06:52:32 51°11.517 2°46.706 243.4 13.5 244 9.2
2010-09-13 06:52:37 51°11.509 2°46.68 243.6 13.4 243 9.1
2010-09-13 06:52:42 51°11.501 2°46.653 243 13.6 244 9.2
2010-09-13 06:52:47 51°11.493 2°46.626 243.8 13.5 244 9.1
2010-09-13 06:52:52 51°11.484 2°46.599 243.8 13.6 244 9.3
2010-09-13 06:52:57 51°11.476 2°46.573 243.5 13.5 243 9.1
2010-09-13 06:53:02 51°11.467 2°46.546 243.3 13.6 244 9.2
2010-09-13 06:53:07 51°11.459 2°46.519 243.4 13.6 243 9.2
2010-09-13 06:53:12 51°11.451 2°46.492 243.4 13.6 244 9.3
2010-09-13 06:53:17 51°11.442 2°46.465 243.6 13.6 243 9.2
2010-09-13 06:53:22 51°11.434 2°46.438 243.3 13.7 245 9.2
2010-09-13 06:53:27 51°11.426 2°46.411 244 13.6 244 9.2
2010-09-13 06:53:32 51°11.417 2°46.384 243.7 13.6 243 9.2
2010-09-13 06:53:36 51°11.411 2°46.363 243.5 13.6 245 9.2
2010-09-13 06:53:42 51°11.4 2°46.331 243.2 13.6 243 9.3
2010-09-13 06:53:47 51°11.392 2°46.304 243.2 13.6 245 9.2
2010-09-13 06:53:52 51°11.383 2°46.277 243.1 13.5 243 9.2
2010-09-13 06:53:56 51°11.377 2°46.255 243.2 13.5 244 9.2
2010-09-13 06:54:02 51°11.367 2°46.223 243.8 13.6 244 9.2
2010-09-13 06:54:07 51°11.358 2°46.196 243.4 13.6 243 9.2
2010-09-13 06:54:12 51°11.35 2°46.169 243.4 13.8 244 9.2
2010-09-13 06:54:17 51°11.342 2°46.142 243.5 13.8 244 9.2
2010-09-13 06:54:22 51°11.333 2°46.115 243.7 13.6 243 9.1
2010-09-13 06:54:27 51°11.325 2°46.089 243 13.6 243 9.2
2010-09-13 06:54:32 51°11.316 2°46.062 243.2 13.6 243 9.2
2010-09-13 06:54:37 51°11.308 2°46.036 243 13.5 243 9.1
2010-09-13 06:54:42 51°11.299 2°46.009 243.4 13.6 243 9.1
2010-09-13 06:54:47 51°11.291 2°45.982 243.4 13.6 243 9.1
2010-09-13 06:54:52 51°11.283 2°45.955 243 13.7 244 9
2010-09-13 06:54:57 51°11.274 2°45.928 243.2 13.6 244 9
2010-09-13 06:55:02 51°11.266 2°45.902 243.3 13.4 243 9
2010-09-13 06:55:07 51°11.257 2°45.875 242.8 13.5 242 8.9
2010-09-13 06:55:12 51°11.249 2°45.848 242.5 13.6 244 9.1
2010-09-13 06:55:17 51°11.24 2°45.822 243.4 13.4 243 9
2010-09-13 06:55:22 51°11.232 2°45.795 243 13.4 243 9.1
2010-09-13 06:55:27 51°11.223 2°45.768 242.9 13.6 244 9.1
2010-09-13 06:55:32 51°11.215 2°45.741 243.6 13.5 244 9
2010-09-13 06:55:37 51°11.206 2°45.715 243.5 13.5 243 9.2
2010-09-13 06:55:42 51°11.199 2°45.688 243.8 13.5 244 9.1
2010-09-13 06:55:47 51°11.19 2°45.661 243.7 13.6 243 9.2
2010-09-13 06:55:52 51°11.182 2°45.634 243.5 13.5 244 9
2010-09-13 06:55:56 51°11.175 2°45.613 243.4 13.5 242 9.1
2010-09-13 06:56:02 51°11.165 2°45.581 243 13.6 244 9.1
2010-09-13 06:56:07 51°11.156 2°45.555 243.2 13.5 243 9.1
2010-09-13 06:56:12 51°11.148 2°45.527 243 13.5 244 9.1
2010-09-13 06:56:16 51°11.141 2°45.506 243.2 13.5 243 9
2010-09-13 06:56:22 51°11.131 2°45.474 243.2 13.5 244 9
2010-09-13 06:56:27 51°11.123 2°45.447 243.2 13.5 243 9.1
2010-09-13 06:56:32 51°11.114 2°45.42 243.3 13.5 245 9
2010-09-13 06:56:37 51°11.106 2°45.393 243.7 13.6 243 9
2010-09-13 06:56:42 51°11.098 2°45.366 243.5 13.6 245 9.1
2010-09-13 06:56:47 51°11.089 2°45.339 243.7 13.5 243 9
2010-09-13 06:56:52 51°11.081 2°45.313 243.2 13.5 244 8.9
2010-09-13 06:56:57 51°11.073 2°45.286 243.3 13.4 244 9.1
2010-09-13 06:57:02 51°11.064 2°45.259 243.6 13.4 244 8.9
2010-09-13 06:57:07 51°11.055 2°45.232 243.2 13.6 243 9.1
2010-09-13 06:57:12 51°11.048 2°45.204 243.6 13.6 244 9
2010-09-13 06:57:17 51°11.039 2°45.177 243.5 13.6 243 9
2010-09-13 06:57:22 51°11.031 2°45.151 243.3 13.4 244 8.9
2010-09-13 06:57:27 51°11.022 2°45.126 243 12.5 243 8.8
2010-09-13 06:57:32 51°11.015 2°45.102 242.9 12 244 8.8
2010-09-13 06:57:37 51°11.008 2°45.078 243.2 11.9 244 8.8
2010-09-13 06:57:42 51°11.001 2°45.055 243.6 11.3 244 9
2010-09-13 06:57:47 51°10.994 2°45.034 244.3 10.7 244 9.1
2010-09-13 06:57:52 51°10.988 2°45.014 244.5 10.2 244 9.1
2010-09-13 06:57:56 51°10.984 2°44.999 244.7 9.8 245 9.2
2010-09-13 06:58:02 51°10.977 2°44.978 244.9 8.9 245 9
2010-09-13 06:58:07 51°10.972 2°44.96 245 8.7 244 9
2010-09-13 06:58:12 51°10.967 2°44.943 244.6 8.5 244 9.2
2010-09-13 06:58:16 51°10.963 2°44.93 244.1 8.1 244 9.2
2010-09-13 06:58:22 51°10.957 2°44.912 244.3 7.9 243 9.1
2010-09-13 06:58:27 51°10.952 2°44.896 244 7.7 243 9.1
2010-09-13 06:58:32 51°10.948 2°44.882 243.6 7.5 243 9.2
2010-09-13 06:58:37 51°10.943 2°44.867 243.4 7.4 243 9.1
2010-09-13 06:58:42 51°10.939 2°44.854 243 7.1 243 9.3
2010-09-13 06:58:47 51°10.934 2°44.84 243 7 243 9
2010-09-13 06:58:52 51°10.93 2°44.827 242.9 6.8 242 9
2010-09-13 06:58:56 51°10.926 2°44.816 242.7 6.7 242 9.2
2010-09-13 06:59:02 51°10.921 2°44.8 242.6 6.6 242 9.1
2010-09-13 06:59:07 51°10.916 2°44.787 242.6 6.6 242 9.1
2010-09-13 06:59:12 51°10.912 2°44.775 242.4 6.4 243 9.1
2010-09-13 06:59:16 51°10.909 2°44.766 242.5 6.1 242 9.2
2010-09-13 06:59:22 51°10.905 2°44.752 242.6 5.8 243 9
2010-09-13 06:59:27 51°10.901 2°44.742 242.6 5.4 241 9.2
2010-09-13 06:59:32 51°10.898 2°44.732 243 4.9 242 9.2
2010-09-13 06:59:37 51°10.896 2°44.723 245.1 4.6 246 9.1
2010-09-13 06:59:42 51°10.893 2°44.714 248.4 4.2 249 9.1
2010-09-13 06:59:47 51°10.892 2°44.706 252.1 3.8 253 9.2
2010-09-13 06:59:52 51°10.891 2°44.699 255.6 3.5 255 9
2010-09-13 06:59:57 51°10.89 2°44.692 259.1 3.1 259 9.1
2010-09-13 07:00:02 51°10.889 2°44.686 262.8 2.8 261 9.2
2010-09-13 07:00:07 51°10.889 2°44.681 266.5 2.5 263 9.1
2010-09-13 07:00:12 51°10.888 2°44.676 269.6 2.3 264 9.1
2010-09-13 07:00:17 51°10.888 2°44.671 272.8 2 267 9.1
2010-09-13 07:00:22 51°10.888 2°44.667 276.1 1.7 266 9.2
2010-09-13 07:00:27 51°10.888 2°44.664 279 1.6 269 9.2
2010-09-13 07:00:32 51°10.887 2°44.66 282.2 1.5 266 9.2
2010-09-13 07:00:36 51°10.887 2°44.658 285.2 1.2 271 9.2
2010-09-13 07:00:42 51°10.887 2°44.656 288.3 0.9 269 9.2
2010-09-13 07:00:47 51°10.887 2°44.654 291.1 0.8 257 9.1
2010-09-13 07:00:52 51°10.887 2°44.652 293.5 0.8 254 9.3
2010-09-13 07:00:57 51°10.886 2°44.651 295.7 0.6 241 9.3
2010-09-13 07:01:02 51°10.886 2°44.65 297.7 0.5 227 9.2
2010-09-13 07:01:07 51°10.885 2°44.65 299.2 0.5 210 9.1
2010-09-13 07:01:12 51°10.885 2°44.65 300.4 0.3 203 9.1
2010-09-13 07:01:17 51°10.884 2°44.65 301.3 0.3 195 9.1
2010-09-13 07:01:22 51°10.884 2°44.649 302 0.4 208 9.2
2010-09-13 07:01:27 51°10.883 2°44.649 302.4 0.4 203 9.1
2010-09-13 07:01:32 51°10.882 2°44.649 302.8 0.4 190 9.1
2010-09-13 07:01:37 51°10.882 2°44.649 303.3 0.5 183 9.2
2010-09-13 07:01:42 51°10.881 2°44.649 303.7 0.4 186 9.2
2010-09-13 07:01:47 51°10.881 2°44.649 304.4 0.4 187 4.5
2010-09-13 07:01:52 51°10.88 2°44.649 304.9 0.5 165 4.6
2010-09-13 07:01:57 51°10.879 2°44.648 305.5 0.5 186 4.7
2010-09-13 07:02:02 51°10.879 2°44.649 305.9 0.5 176 4.8
2010-09-13 07:02:07 51°10.878 2°44.648 306.5 0.5 184 4.6
2010-09-13 07:02:12 51°10.878 2°44.648 307.2 0.3 188 9.1
2010-09-13 07:02:17 51°10.878 2°44.648 308 0.4 194 9.2
2010-09-13 07:02:22 51°10.877 2°44.648 308.8 0.4 181 9.1
2010-09-13 07:02:27 51°10.876 2°44.649 309.4 0.4 170 9.1
2010-09-13 07:02:32 51°10.876 2°44.648 310.4 0.4 181 9.1
2010-09-13 07:02:36 51°10.875 2°44.649 311.5 0.4 186 9.1
2010-09-13 07:02:42 51°10.875 2°44.649 312.6 0.4 179 9.1
2010-09-13 07:02:47 51°10.874 2°44.649 313.5 0.4 181 9.1
2010-09-13 07:02:52 51°10.873 2°44.649 314.5 0.5 168 9.1
2010-09-13 07:02:56 51°10.873 2°44.649 315.4 0.5 177 9
2010-09-13 07:03:02 51°10.872 2°44.65 316.5 0.4 159 9
2010-09-13 07:03:07 51°10.872 2°44.65 317.2 0.4 131 9.1
2010-09-13 07:03:12 51°10.872 2°44.65 318.6 0.3 145 9.2
2010-09-13 07:03:16 51°10.871 2°44.65 319.9 0.5 173 9
2010-09-13 07:03:22 51°10.87 2°44.65 320.9 0.5 163 9
2010-09-13 07:03:27 51°10.869 2°44.65 321.9 0.4 167 9
2010-09-13 07:03:32 51°10.868 2°44.651 323.3 0.5 159 9.1
2010-09-13 07:03:37 51°10.868 2°44.651 324.4 0.4 159 9
2010-09-13 07:03:42 51°10.867 2°44.651 325.2 0.5 172 9
2010-09-13 07:03:47 51°10.866 2°44.651 326.4 0.5 174 9
2010-09-13 07:03:52 51°10.866 2°44.652 327.5 0.5 160 8.9
2010-09-13 07:03:57 51°10.865 2°44.652 328.7 0.5 165 9
2010-09-13 07:04:02 51°10.864 2°44.652 329.9 0.5 168 9
2010-09-13 07:04:07 51°10.863 2°44.652 330.6 0.5 181 9
2010-09-13 07:04:12 51°10.863 2°44.652 331.9 0.5 169 9.1
2010-09-13 07:04:17 51°10.862 2°44.653 333.1 0.5 160 9.2
2010-09-13 07:04:22 51°10.862 2°44.653 334 0.5 170 9.1
2010-09-13 07:04:27 51°10.861 2°44.653 335 0.5 174 9
2010-09-13 07:04:32 51°10.86 2°44.654 336.5 0.5 166 8.9
2010-09-13 07:04:37 51°10.86 2°44.654 337.6 0.5 171 8.9
2010-09-13 07:04:42 51°10.859 2°44.654 338.8 0.5 171 8.9
2010-09-13 07:04:47 51°10.858 2°44.654 339.8 0.5 172 8.9
2010-09-13 07:04:52 51°10.858 2°44.654 341.1 0.5 180 8.9
2010-09-13 07:04:57 51°10.857 2°44.654 342 0.5 182 8.9
2010-09-13 07:05:02 51°10.856 2°44.654 343.3 0.5 182 9
2010-09-13 07:05:07 51°10.856 2°44.655 344.7 0.5 173 9
2010-09-13 07:05:12 51°10.855 2°44.655 345.8 0.5 172 8.9
2010-09-13 07:05:16 51°10.854 2°44.654 347.1 0.5 184 8.9
2010-09-13 07:05:22 51°10.854 2°44.655 348.1 0.5 177 8.8
2010-09-13 07:05:27 51°10.853 2°44.655 349.4 0.5 172 8.8
2010-09-13 07:05:32 51°10.852 2°44.655 351.3 0.5 170 8.9
2010-09-13 07:05:36 51°10.851 2°44.655 352.6 0.5 173 8.9
2010-09-13 07:05:42 51°10.851 2°44.655 354.1 0.5 175 8.9
2010-09-13 07:05:47 51°10.85 2°44.655 355.2 0.5 173 9
2010-09-13 07:05:52 51°10.849 2°44.655 356.9 0.5 175 8.8
2010-09-13 07:05:57 51°10.848 2°44.655 358.1 0.5 177 8.7
2010-09-13 07:06:02 51°10.848 2°44.655 -999 0.5 184 8.7
2010-09-13 07:06:07 51°10.847 2°44.655 1.1 0.5 186 8.7
2010-09-13 07:06:12 51°10.846 2°44.655 2.9 0.6 178 8.6
2010-09-13 07:06:17 51°10.846 2°44.655 3.8 0.6 171 8.9
2010-09-13 07:06:22 51°10.845 2°44.655 5.2 0.5 160 8.9
2010-09-13 07:06:27 51°10.844 2°44.655 6.5 0.5 166 8.7
2010-09-13 07:06:32 51°10.843 2°44.655 8 0.6 187 8.7
2010-09-13 07:06:37 51°10.843 2°44.654 9.5 0.6 187 8.7
2010-09-13 07:06:42 51°10.842 2°44.654 11 0.5 191 8.9
2010-09-13 07:06:47 51°10.841 2°44.654 12 0.5 187 8.9
2010-09-13 07:06:52 51°10.841 2°44.654 13.2 0.5 199 8.9
2010-09-13 07:06:56 51°10.84 2°44.654 14.1 0.5 187 8.8
2010-09-13 07:07:02 51°10.839 2°44.654 15.3 0.5 172 8.9
2010-09-13 07:07:07 51°10.839 2°44.654 16.5 0.5 182 8.8
2010-09-13 07:07:12 51°10.838 2°44.653 17.7 0.5 198 8.8
2010-09-13 07:07:16 51°10.838 2°44.653 18.6 0.4 188 8.7
2010-09-13 07:07:22 51°10.837 2°44.653 20 0.5 198 8.6
2010-09-13 07:07:27 51°10.836 2°44.653 20.8 0.5 191 8.6
2010-09-13 07:07:32 51°10.835 2°44.653 22.5 0.4 184 8.7
2010-09-13 07:07:36 51°10.835 2°44.652 23.3 0.5 183 8.8
2010-09-13 07:07:42 51°10.834 2°44.652 24.4 0.5 194 8.7
2010-09-13 07:07:47 51°10.833 2°44.652 25.6 0.6 192 8.7
2010-09-13 07:07:52 51°10.833 2°44.652 26.9 0.5 187 8.8
2010-09-13 07:07:57 51°10.832 2°44.652 27.7 0.5 184 8.7
2010-09-13 07:08:02 51°10.831 2°44.652 28.6 0.5 180 8.8
2010-09-13 07:08:07 51°10.83 2°44.651 29.8 0.4 189 8.7
2010-09-13 07:08:12 51°10.83 2°44.651 30.6 0.5 177 8.9
2010-09-13 07:08:17 51°10.829 2°44.651 31.4 0.4 191 8.9
2010-09-13 07:08:22 51°10.829 2°44.651 32.2 0.4 172 8.8
2010-09-13 07:08:27 51°10.828 2°44.651 33 0.4 184 8.8
2010-09-13 07:08:32 51°10.827 2°44.65 34.2 0.5 190 8.6
2010-09-13 07:08:37 51°10.827 2°44.65 34.9 0.5 191 8.6
2010-09-13 07:08:42 51°10.826 2°44.65 35.2 0.4 194 8.6
2010-09-13 07:08:47 51°10.825 2°44.65 35.8 0.4 190 8.6
2010-09-13 07:08:52 51°10.825 2°44.649 36.4 0.5 189 8.7
2010-09-13 07:08:57 51°10.824 2°44.649 37 0.5 193 8.6
2010-09-13 07:09:02 51°10.823 2°44.649 37.4 0.5 183 8.7
2010-09-13 07:09:07 51°10.823 2°44.649 37.8 0.5 197 8.7
2010-09-13 07:09:12 51°10.822 2°44.648 37.9 0.5 196 8.8
2010-09-13 07:09:16 51°10.821 2°44.648 38.5 0.4 193 8.7
2010-09-13 07:09:22 51°10.821 2°44.648 38.8 0.4 191 8.5
2010-09-13 07:09:27 51°10.82 2°44.648 39.2 0.4 197 8.6
2010-09-13 07:09:32 51°10.82 2°44.648 39.6 0.5 192 8.7
2010-09-13 07:09:36 51°10.819 2°44.647 40 0.5 201 8.6
2010-09-13 07:09:42 51°10.818 2°44.647 40.3 0.4 194 8.6
2010-09-13 07:09:47 51°10.818 2°44.647 40.7 0.4 201 8.6
2010-09-13 07:09:52 51°10.817 2°44.647 41 0.4 174 8.5
2010-09-13 07:09:57 51°10.817 2°44.647 40.9 0.2 139 8.5
2010-09-13 07:10:02 51°10.817 2°44.647 40.4 0.3 95 8.6
2010-09-13 07:10:07 51°10.817 2°44.649 40 0.7 57 8.7
2010-09-13 07:10:12 51°10.818 2°44.65 40 1.2 50 8.7
2010-09-13 07:10:17 51°10.82 2°44.653 40.5 1.7 44 8.6
2010-09-13 07:10:22 51°10.823 2°44.657 41 2.4 44 8.7
2010-09-13 07:10:27 51°10.826 2°44.661 41.8 2.7 42 8.7
2010-09-13 07:10:32 51°10.828 2°44.666 42.6 3.1 43 8.6
2010-09-13 07:10:37 51°10.832 2°44.671 43.4 3.5 45 8.7
2010-09-13 07:10:42 51°10.836 2°44.677 44.5 3.9 45 8.7
2010-09-13 07:10:47 51°10.84 2°44.683 45.5 4.1 47 8.7
2010-09-13 07:10:52 51°10.844 2°44.691 46.9 4.5 46 8.6
2010-09-13 07:10:57 51°10.848 2°44.699 48.3 4.8 49 8.5
2010-09-13 07:11:02 51°10.853 2°44.707 49.4 5.1 48 8.5
2010-09-13 07:11:07 51°10.858 2°44.715 49.4 5.2 48 8.7
2010-09-13 07:11:12 51°10.863 2°44.724 49.3 5.3 46 8.7
2010-09-13 07:11:17 51°10.868 2°44.733 48.2 5.6 47 8.8
2010-09-13 07:11:22 51°10.874 2°44.742 46 5.7 43 8.7
2010-09-13 07:11:27 51°10.88 2°44.75 43.9 6 42 8.6
2010-09-13 07:11:32 51°10.887 2°44.759 42.4 6 41 8.9
2010-09-13 07:11:36 51°10.892 2°44.765 40.5 6.1 38 8.9
2010-09-13 07:11:42 51°10.9 2°44.775 38.7 6.2 35 8.8
2010-09-13 07:11:47 51°10.908 2°44.783 36.7 6.3 33 8.8
2010-09-13 07:11:52 51°10.915 2°44.79 34.8 6.3 33 9
2010-09-13 07:11:56 51°10.921 2°44.796 33.6 6.4 32 8.9
2010-09-13 07:12:02 51°10.93 2°44.805 32.3 6.4 31 8.8
2010-09-13 07:12:07 51°10.938 2°44.812 31.4 6.5 30 9
2010-09-13 07:12:12 51°10.946 2°44.818 30.6 6.6 28 9.1
2010-09-13 07:12:17 51°10.955 2°44.825 29.9 6.7 26 9
2010-09-13 07:12:22 51°10.963 2°44.832 29.3 6.7 28 9.2
2010-09-13 07:12:27 51°10.971 2°44.839 29.2 6.8 28 9.1
2010-09-13 07:12:32 51°10.979 2°44.846 29.5 6.7 28 9.2
2010-09-13 07:12:37 51°10.987 2°44.853 30.4 6.7 29 9.3
2010-09-13 07:12:42 51°10.995 2°44.861 31.3 6.8 31 9.4
2010-09-13 07:12:47 51°11.003 2°44.869 32.2 6.9 33 9.3
2010-09-13 07:12:52 51°11.012 2°44.877 33.5 6.8 32 9.3
2010-09-13 07:12:57 51°11.019 2°44.885 34.4 6.8 35 9.4
2010-09-13 07:13:02 51°11.027 2°44.894 36.4 7 37 9.6
2010-09-13 07:13:07 51°11.035 2°44.905 39.1 7 40 9.5
2010-09-13 07:13:12 51°11.041 2°44.915 43.2 6.9 44 9.5
2010-09-13 07:13:17 51°11.048 2°44.926 46.8 6.8 46 9.5
2010-09-13 07:13:22 51°11.054 2°44.937 48.7 6.8 47 9.4
2010-09-13 07:13:27 51°11.06 2°44.948 48.7 6.8 48 9.5
2010-09-13 07:13:32 51°11.067 2°44.959 48.7 6.9 46 9.6
2010-09-13 07:13:36 51°11.072 2°44.968 48.2 6.9 46 9.5
2010-09-13 07:13:42 51°11.08 2°44.981 47.5 6.9 45 9.5
2010-09-13 07:13:47 51°11.086 2°44.992 46.5 6.9 45 9.6
2010-09-13 07:13:52 51°11.093 2°45.003 45.7 6.9 44 9.7
2010-09-13 07:13:56 51°11.099 2°45.012 45.3 6.9 45 9.7
2010-09-13 07:14:02 51°11.107 2°45.025 45.8 6.9 47 9.7
2010-09-13 07:14:07 51°11.113 2°45.036 46.5 6.9 48 9.9
2010-09-13 07:14:12 51°11.119 2°45.047 48.5 6.9 49 9.8
2010-09-13 07:14:16 51°11.124 2°45.057 50.8 6.9 52 9.7
2010-09-13 07:14:22 51°11.131 2°45.072 53.4 6.9 55 9.8
2010-09-13 07:14:27 51°11.136 2°45.085 56.3 6.8 58 9.8
2010-09-13 07:14:32 51°11.14 2°45.098 59.1 6.9 62 9.9
2010-09-13 07:14:37 51°11.144 2°45.112 62.1 6.8 65 10
2010-09-13 07:14:42 51°11.147 2°45.127 66.9 6.8 72 9.8
2010-09-13 07:14:47 51°11.149 2°45.141 72.9 6.7 78 9.7
2010-09-13 07:14:52 51°11.149 2°45.155 78.8 6.5 85 9.8
2010-09-13 07:14:57 51°11.149 2°45.169 84.7 6.2 91 9.8
2010-09-13 07:15:02 51°11.147 2°45.182 90.8 5.9 103 9.8
2010-09-13 07:15:07 51°11.145 2°45.194 98.1 5.8 109 9.7
2010-09-13 07:15:12 51°11.142 2°45.205 105.6 5.6 116 9.7
2010-09-13 07:15:17 51°11.137 2°45.215 113 5.4 124 9.5
2010-09-13 07:15:22 51°11.132 2°45.224 120.3 5.3 133 9.6
2010-09-13 07:15:27 51°11.127 2°45.231 127.2 5.2 140 9.5
2010-09-13 07:15:32 51°11.121 2°45.237 134.8 5.1 147 9.5
2010-09-13 07:15:37 51°11.115 2°45.242 142 4.9 155 9.4
2010-09-13 07:15:42 51°11.108 2°45.245 148.5 4.7 162 9.3
2010-09-13 07:15:47 51°11.102 2°45.248 154.7 4.6 167 9.3
2010-09-13 07:15:52 51°11.096 2°45.249 160.4 4.7 171 9.2
2010-09-13 07:15:56 51°11.091 2°45.25 166.1 4.4 176 9.2
2010-09-13 07:16:02 51°11.084 2°45.249 171.4 4.3 183 9.2
2010-09-13 07:16:07 51°11.078 2°45.248 176.2 4.1 186 9.1
2010-09-13 07:16:12 51°11.072 2°45.246 180.5 4 190 9.1
2010-09-13 07:16:16 51°11.068 2°45.245 184.5 3.9 193 9
2010-09-13 07:16:22 51°11.062 2°45.242 188.7 3.9 196 9
2010-09-13 07:16:27 51°11.057 2°45.239 191.4 3.9 199 8.9
2010-09-13 07:16:32 51°11.052 2°45.237 193.6 4 200 8.9
2010-09-13 07:16:36 51°11.047 2°45.234 195.6 4.4 201 8.9
2010-09-13 07:16:42 51°11.04 2°45.229 197.8 4.8 203 8.9
2010-09-13 07:16:47 51°11.033 2°45.224 200.2 5.3 207 8.7
2010-09-13 07:16:52 51°11.027 2°45.218 203.2 5.5 209 8.8
2010-09-13 07:16:57 51°11.02 2°45.211 207.8 5.5 215 8.7
2010-09-13 07:17:02 51°11.014 2°45.204 212.2 5.5 216 8.6
2010-09-13 07:17:07 51°11.008 2°45.196 215.1 5.4 219 8.7
2010-09-13 07:17:12 51°11.003 2°45.188 217.2 5.4 220 8.8
2010-09-13 07:17:17 51°10.997 2°45.18 219.2 5.3 222 8.6
2010-09-13 07:17:22 51°10.992 2°45.172 220.7 5.1 223 8.7
2010-09-13 07:17:27 51°10.987 2°45.165 221.9 5 223 8.7
2010-09-13 07:17:32 51°10.982 2°45.157 223.3 4.9 225 8.7
2010-09-13 07:17:37 51°10.978 2°45.149 224.4 4.8 225 8.6
2010-09-13 07:17:42 51°10.974 2°45.141 225.3 4.7 228 8.6
2010-09-13 07:17:47 51°10.969 2°45.134 226 4.6 227 8.5
2010-09-13 07:17:52 51°10.965 2°45.126 226.7 4.5 228 8.4
2010-09-13 07:17:56 51°10.962 2°45.121 227.4 4.4 229 8.6
2010-09-13 07:18:02 51°10.957 2°45.112 228.2 4.2 230 8.5
2010-09-13 07:18:07 51°10.954 2°45.105 228.8 4.1 230 8.6
2010-09-13 07:18:12 51°10.95 2°45.098 229.6 4 232 8.6
2010-09-13 07:18:16 51°10.947 2°45.093 230.4 4 233 8.4
2010-09-13 07:18:22 51°10.943 2°45.085 230.9 3.8 232 8.5
2010-09-13 07:18:27 51°10.94 2°45.078 231.4 3.8 232 8.5
2010-09-13 07:18:32 51°10.937 2°45.072 231.6 3.7 231 8.6
2010-09-13 07:18:36 51°10.934 2°45.067 231.9 3.6 232 8.5
2010-09-13 07:18:42 51°10.931 2°45.06 232.3 3.5 232 8.4
2010-09-13 07:18:47 51°10.928 2°45.053 232.9 3.5 233 8.5
2010-09-13 07:18:52 51°10.925 2°45.047 233.5 3.4 234 8.5
2010-09-13 07:18:57 51°10.922 2°45.041 234 3.4 235 8.4
2010-09-13 07:19:02 51°10.92 2°45.036 234.6 3.3 234 8.4
2010-09-13 07:19:07 51°10.917 2°45.03 235.2 3.2 234 8.4
2010-09-13 07:19:12 51°10.914 2°45.025 235.7 3.1 233 8.5
2010-09-13 07:19:16 51°10.912 2°45.02 236.3 3.2 236 8.5
2010-09-13 07:19:22 51°10.909 2°45.013 236.9 3.1 236 8.4
2010-09-13 07:19:27 51°10.907 2°45.007 237.3 3.1 237 8.2
2010-09-13 07:19:32 51°10.905 2°45.001 237.7 3.1 237 8.4
2010-09-13 07:19:37 51°10.902 2°44.996 238.2 3 237 8.4
2010-09-13 07:19:42 51°10.9 2°44.99 238.6 3.1 237 8.4
2010-09-13 07:19:47 51°10.898 2°44.984 238.9 3.1 237 8.5
2010-09-13 07:19:52 51°10.896 2°44.979 239.3 3 238 8.5
2010-09-13 07:19:57 51°10.893 2°44.973 239.6 3 239 8.3
2010-09-13 07:20:02 51°10.891 2°44.967 240.1 3 238 8.4